createdAt,value
2023-05-13T00:01:14.816Z,12.92
2023-05-13T00:04:18.459Z,12.87
2023-05-13T00:07:29.034Z,12.85
2023-05-13T00:10:07.641Z,12.87
2023-05-13T00:12:44.582Z,12.87
2023-05-13T00:15:48.496Z,12.91
2023-05-13T00:18:49.472Z,12.83
2023-05-13T00:21:36.734Z,12.90
2023-05-13T00:24:28.257Z,12.91
2023-05-13T00:27:39.704Z,12.89
2023-05-13T00:30:52.386Z,12.76
2023-05-13T00:34:24.001Z,12.62
2023-05-13T00:37:26.565Z,12.56
2023-05-13T00:40:49.454Z,12.51
2023-05-13T00:44:24.280Z,12.46
2023-05-13T00:47:37.552Z,12.43
2023-05-13T00:50:32.731Z,12.38
2023-05-13T00:53:08.769Z,12.30
2023-05-13T00:56:07.208Z,12.30
2023-05-13T00:59:19.159Z,12.26
2023-05-13T01:03:00.242Z,12.22
2023-05-13T01:06:44.669Z,12.24
2023-05-13T01:09:15.718Z,12.29
2023-05-13T01:12:13.169Z,12.28
2023-05-13T01:15:15.386Z,12.28
2023-05-13T01:18:42.477Z,12.23
2023-05-13T01:21:12.133Z,12.15
2023-05-13T01:24:30.981Z,12.11
2023-05-13T01:27:18.546Z,12.03
2023-05-13T01:30:16.212Z,12.03
2023-05-13T01:33:02.455Z,12.02
2023-05-13T01:35:49.316Z,11.99
2023-05-13T01:38:42.205Z,11.98
2023-05-13T01:41:58.609Z,11.90
2023-05-13T01:45:16.444Z,11.89
2023-05-13T01:48:25.314Z,11.90
2023-05-13T01:51:04.809Z,11.84
2023-05-13T01:54:03.196Z,11.75
2023-05-13T01:57:40.402Z,11.70
2023-05-13T02:00:44.686Z,11.53
2023-05-13T02:04:05.669Z,11.49
2023-05-13T02:07:20.171Z,11.41
2023-05-13T02:10:18.706Z,11.39
2023-05-13T02:13:06.112Z,11.42
2023-05-13T02:15:37.913Z,11.48
2023-05-13T02:18:43.393Z,11.53
2023-05-13T02:22:17.374Z,11.48
2023-05-13T02:25:02.236Z,11.44
2023-05-13T02:28:21.160Z,11.40
2023-05-13T02:30:55.245Z,11.27
2023-05-13T02:34:21.007Z,11.18
2023-05-13T02:37:09.592Z,11.17
2023-05-13T02:40:09.533Z,11.20
2023-05-13T02:43:08.222Z,11.18
2023-05-13T02:46:44.796Z,11.22
2023-05-13T02:50:06.433Z,11.21
2023-05-13T02:53:55.360Z,11.16
2023-05-13T02:57:31.226Z,10.99
2023-05-13T03:01:02.440Z,10.88
2023-05-13T03:04:07.116Z,10.85
2023-05-13T03:07:13.468Z,10.83
2023-05-13T03:09:47.197Z,10.83
2023-05-13T03:12:49.619Z,10.90
2023-05-13T03:15:44.657Z,10.95
2023-05-13T03:18:28.793Z,10.97
2023-05-13T03:21:25.506Z,11.04
2023-05-13T03:24:44.501Z,11.39
2023-05-13T03:27:57.134Z,11.77
2023-05-13T03:31:28.763Z,12.05
2023-05-13T03:34:09.798Z,12.28
2023-05-13T03:37:30.140Z,12.43
2023-05-13T03:40:35.438Z,12.65
2023-05-13T03:44:24.479Z,12.92
2023-05-13T03:47:23.387Z,13.25
2023-05-13T03:50:13.561Z,13.29
2023-05-13T03:53:42.487Z,13.27
2023-05-13T03:57:02.821Z,13.20
2023-05-13T04:00:23.726Z,12.85
2023-05-13T04:03:50.899Z,12.52
2023-05-13T04:07:13.444Z,12.53
2023-05-13T04:10:04.871Z,12.62
2023-05-13T04:12:38.943Z,12.71
2023-05-13T04:15:31.884Z,12.75
2023-05-13T04:18:31.725Z,12.82
2023-05-13T04:21:52.642Z,12.80
2023-05-13T04:25:05.703Z,12.90
2023-05-13T04:28:24.917Z,12.87
2023-05-13T04:31:28.097Z,13.05
2023-05-13T04:34:26.694Z,13.30
2023-05-13T04:37:47.595Z,13.64
2023-05-13T04:40:51.443Z,13.85
2023-05-13T04:44:08.231Z,13.99
2023-05-13T04:47:35.082Z,13.86
2023-05-13T04:50:31.913Z,13.90
2023-05-13T04:53:36.004Z,14.01
2023-05-13T04:56:59.196Z,14.06
2023-05-13T05:00:01.424Z,14.21
2023-05-13T05:02:46.541Z,14.26
2023-05-13T05:05:38.494Z,14.38
2023-05-13T05:08:59.930Z,14.62
2023-05-13T05:12:49.087Z,14.67
2023-05-13T05:16:11.412Z,14.92
2023-05-13T05:19:24.002Z,14.95
2023-05-13T05:21:56.203Z,15.16
2023-05-13T05:24:34.765Z,15.31
2023-05-13T05:27:45.866Z,15.34
2023-05-13T05:30:50.764Z,15.56
2023-05-13T05:33:59.299Z,15.64
2023-05-13T05:45:03.047Z,16.01
2023-05-13T05:47:31.730Z,15.96
2023-05-13T05:50:41.191Z,16.08
2023-05-13T05:53:24.008Z,16.19
2023-05-13T05:56:05.441Z,16.38
2023-05-13T05:59:34.162Z,16.50
2023-05-13T06:02:11.184Z,16.62
2023-05-13T06:05:33.387Z,16.66
2023-05-13T06:08:30.265Z,16.89
2023-05-13T06:11:09.644Z,17.07
2023-05-13T06:13:53.506Z,17.23
2023-05-13T06:16:36.240Z,17.40
2023-05-13T06:19:50.678Z,17.57
2023-05-13T06:22:25.811Z,17.63
2023-05-13T06:25:32.351Z,17.63
2023-05-13T06:28:21.242Z,17.77
2023-05-13T06:31:22.771Z,18.02
2023-05-13T06:33:59.404Z,18.21
2023-05-13T06:36:37.246Z,18.39
2023-05-13T06:39:33.131Z,18.43
2023-05-13T06:42:29.814Z,18.69
2023-05-13T06:45:03.928Z,18.71
2023-05-13T06:47:53.474Z,18.77
2023-05-13T06:50:51.561Z,18.81
2023-05-13T06:53:35.443Z,18.96
2023-05-13T06:56:06.761Z,19.14
2023-05-13T06:58:52.236Z,19.26
2023-05-13T07:01:43.742Z,19.28
2023-05-13T07:04:23.594Z,19.26
2023-05-13T07:07:39.216Z,19.48
2023-05-13T07:11:00.084Z,19.99
2023-05-13T07:13:45.526Z,20.47
2023-05-13T07:16:25.230Z,21.46
2023-05-13T07:19:31.120Z,21.78
2023-05-13T07:22:34.407Z,22.52
2023-05-13T07:25:44.459Z,23.08
2023-05-13T07:28:57.219Z,22.49
2023-05-13T07:31:52.094Z,23.21
2023-05-13T07:35:27.126Z,23.75
2023-05-13T07:39:07.147Z,22.99
2023-05-13T07:42:56.519Z,23.52
2023-05-13T07:46:44.671Z,23.85
2023-05-13T07:50:33.694Z,24.79
2023-05-13T07:54:04.938Z,25.30
2023-05-13T07:57:14.612Z,25.72
2023-05-13T08:00:42.011Z,25.55
2023-05-13T08:04:16.824Z,25.08
2023-05-13T08:08:02.541Z,24.96
2023-05-13T08:11:49.218Z,24.81
2023-05-13T08:15:02.905Z,25.47
2023-05-13T08:18:57.679Z,25.53
2023-05-13T08:22:46.192Z,24.79
2023-05-13T08:26:09.601Z,25.56
2023-05-13T08:29:30.459Z,25.38
2023-05-13T08:33:19.247Z,25.30
2023-05-13T08:36:58.491Z,25.42
2023-05-13T08:40:07.788Z,25.80
2023-05-13T08:43:36.796Z,25.93
2023-05-13T08:46:55.371Z,25.67
2023-05-13T08:50:21.371Z,26.31
2023-05-13T08:54:11.058Z,26.88
2023-05-13T08:58:01.254Z,26.01
2023-05-13T09:01:41.816Z,26.17
2023-05-13T09:05:32.004Z,26.67
2023-05-13T09:09:21.262Z,26.95
2023-05-13T09:13:12.924Z,26.46
2023-05-13T09:17:02.031Z,26.49
2023-05-13T09:20:41.938Z,26.58
2023-05-13T09:24:31.395Z,26.82
2023-05-13T09:28:20.764Z,27.02
2023-05-13T09:32:06.857Z,26.80
2023-05-13T09:35:49.080Z,27.26
2023-05-13T09:39:40.231Z,27.23
2023-05-13T09:43:30.506Z,26.89
2023-05-13T09:47:21.046Z,27.07
2023-05-13T09:50:55.395Z,27.68
2023-05-13T09:54:44.921Z,27.37
2023-05-13T09:58:34.880Z,26.86
2023-05-13T10:02:24.432Z,27.91
2023-05-13T10:06:08.081Z,28.20
2023-05-13T10:09:44.206Z,28.34
2023-05-13T10:13:33.670Z,28.52
2023-05-13T10:17:25.387Z,29.55
2023-05-13T10:20:57.283Z,28.73
2023-05-13T10:24:47.446Z,28.35
2023-05-13T10:28:28.628Z,26.37
2023-05-13T10:32:12.008Z,25.54
2023-05-13T10:35:52.174Z,27.21
2023-05-13T10:39:45.943Z,28.58
2023-05-13T10:43:37.674Z,28.24
2023-05-13T10:47:16.925Z,28.78
2023-05-13T10:51:07.207Z,28.69
2023-05-13T10:54:59.896Z,28.88
2023-05-13T10:59:11.021Z,28.53
2023-05-13T11:03:02.158Z,27.66
2023-05-13T11:07:02.497Z,26.53
2023-05-13T11:10:41.609Z,25.79
2023-05-13T11:14:16.344Z,25.78
2023-05-13T11:18:07.258Z,26.50
2023-05-13T11:21:44.196Z,26.83
2023-05-13T11:25:26.361Z,28.05
2023-05-13T11:29:00.816Z,28.05
2023-05-13T11:32:46.348Z,27.22
2023-05-13T11:36:33.965Z,26.66
2023-05-13T11:40:24.156Z,27.12
2023-05-13T11:44:13.776Z,27.53
2023-05-13T11:47:59.529Z,28.66
2023-05-13T11:51:36.037Z,29.60
2023-05-13T11:55:35.580Z,30.21
2023-05-13T11:59:33.352Z,30.77
2023-05-13T12:03:28.345Z,29.50
2023-05-13T12:07:24.812Z,28.81
2023-05-13T12:11:14.786Z,29.46
2023-05-13T12:15:04.469Z,29.77
2023-05-13T12:18:54.168Z,29.54
2023-05-13T12:22:30.558Z,29.62
2023-05-13T12:26:35.908Z,30.10
2023-05-13T12:30:27.804Z,30.93
2023-05-13T12:34:16.525Z,30.71
2023-05-13T12:38:06.063Z,30.99
2023-05-13T12:41:41.692Z,31.13
2023-05-13T12:45:32.171Z,31.24
2023-05-13T12:49:20.528Z,31.12
2023-05-13T12:53:15.582Z,30.63
2023-05-13T12:57:06.128Z,31.38
2023-05-13T13:00:46.559Z,30.37
2023-05-13T13:04:22.880Z,29.52
2023-05-13T13:08:12.449Z,30.19
2023-05-13T13:12:03.549Z,29.44
2023-05-13T13:15:42.187Z,29.72
2023-05-13T13:19:15.368Z,29.91
2023-05-13T13:22:34.617Z,30.09
2023-05-13T13:26:24.930Z,29.58
2023-05-13T13:30:17.105Z,28.58
2023-05-13T13:34:07.409Z,28.49
2023-05-13T13:37:57.780Z,28.17
2023-05-13T13:41:47.542Z,27.75
2023-05-13T13:45:39.376Z,27.58
2023-05-13T13:49:52.065Z,28.31
2023-05-13T13:53:43.250Z,28.40
2023-05-13T13:57:41.209Z,28.11
2023-05-13T14:01:31.097Z,28.20
2023-05-13T14:05:31.691Z,28.07
2023-05-13T14:09:22.473Z,28.61
2023-05-13T14:13:12.283Z,28.76
2023-05-13T14:17:01.524Z,28.51
2023-05-13T14:20:52.116Z,27.84
2023-05-13T14:24:42.299Z,27.65
2023-05-13T14:28:27.007Z,28.08
2023-05-13T14:32:19.965Z,28.76
2023-05-13T14:36:09.306Z,29.08
2023-05-13T14:40:04.736Z,29.46
2023-05-13T14:43:54.269Z,29.69
2023-05-13T14:47:31.393Z,29.77
2023-05-13T14:51:20.287Z,29.51
2023-05-13T14:54:55.453Z,29.70
2023-05-13T14:58:36.727Z,30.43
2023-05-13T15:02:26.148Z,29.49
2023-05-13T15:06:08.540Z,28.77
2023-05-13T15:09:42.713Z,28.53
2023-05-13T15:13:40.301Z,29.22
2023-05-13T15:17:30.235Z,29.50
2023-05-13T15:20:59.292Z,30.13
2023-05-13T15:24:39.653Z,29.83
2023-05-13T15:28:10.996Z,29.65
2023-05-13T15:31:26.835Z,30.02
2023-05-13T15:35:00.475Z,29.97
2023-05-13T15:38:50.371Z,30.16
2023-05-13T15:42:40.401Z,30.53
2023-05-13T15:46:30.134Z,29.85
2023-05-13T15:50:20.282Z,29.65
2023-05-13T15:54:09.922Z,29.94
2023-05-13T15:57:59.589Z,30.16
2023-05-13T16:01:38.758Z,29.90
2023-05-13T16:05:29.641Z,30.06
2023-05-13T16:09:18.676Z,29.97
2023-05-13T16:13:08.679Z,30.25
2023-05-13T16:16:58.910Z,30.17
2023-05-13T16:20:48.407Z,29.77
2023-05-13T16:24:27.601Z,29.46
2023-05-13T16:28:17.614Z,29.16
2023-05-13T16:32:07.419Z,29.94
2023-05-13T16:35:51.464Z,30.08
2023-05-13T16:39:40.467Z,29.85
2023-05-13T16:43:24.613Z,29.72
2023-05-13T16:46:35.097Z,29.74
2023-05-13T16:50:06.869Z,29.84
2023-05-13T16:53:47.835Z,29.85
2023-05-13T16:57:37.472Z,29.56
2023-05-13T17:01:27.270Z,29.54
2023-05-13T17:05:17.853Z,29.57
2023-05-13T17:09:00.463Z,29.60
2023-05-13T17:12:24.126Z,29.61
2023-05-13T17:15:47.715Z,29.20
2023-05-13T17:19:37.944Z,28.74
2023-05-13T17:23:28.236Z,28.40
2023-05-13T17:27:22.865Z,27.85
2023-05-13T17:31:17.849Z,27.54
2023-05-13T17:35:14.672Z,27.14
2023-05-13T17:39:06.933Z,26.88
2023-05-13T17:43:16.192Z,26.69
2023-05-13T17:47:29.654Z,26.35
2023-05-13T17:51:21.396Z,26.12
2023-05-13T17:55:12.117Z,25.83
2023-05-13T17:59:03.450Z,25.20
2023-05-13T18:03:11.018Z,24.75
2023-05-13T18:07:08.841Z,24.51
2023-05-13T18:11:16.026Z,24.15
2023-05-13T18:15:10.786Z,23.69
2023-05-13T18:19:20.067Z,22.63
2023-05-13T18:23:24.826Z,21.80
2023-05-13T18:31:43.935Z,21.28
2023-05-13T18:36:12.861Z,20.75
2023-05-13T18:40:07.640Z,20.27
2023-05-13T18:44:40.386Z,19.95
2023-05-13T18:49:10.229Z,19.64
2023-05-13T18:53:19.962Z,19.46
2023-05-13T18:57:29.257Z,19.09
2023-05-13T19:01:27.875Z,18.82
2023-05-13T19:05:38.047Z,18.59
2023-05-13T19:09:46.881Z,18.09
2023-05-13T19:13:57.052Z,17.66
2023-05-13T19:17:52.754Z,17.39
2023-05-13T19:21:59.670Z,17.05
2023-05-13T19:25:54.588Z,16.97
2023-05-13T19:30:05.949Z,16.71
2023-05-13T19:33:57.350Z,16.49
2023-05-13T19:37:49.757Z,16.09
2023-05-13T19:41:51.248Z,15.80
2023-05-13T19:45:30.530Z,15.52
2023-05-13T19:49:20.580Z,15.31
2023-05-13T19:53:29.637Z,15.01
2023-05-13T19:57:20.230Z,15.02
2023-05-13T20:01:09.361Z,14.69
2023-05-13T20:05:05.014Z,14.51
2023-05-13T20:08:55.836Z,14.27
2023-05-13T20:12:24.841Z,14.28
2023-05-13T20:16:04.761Z,14.22
2023-05-13T20:19:55.599Z,14.13
2023-05-13T20:23:46.164Z,14.12
2023-05-13T20:27:00.364Z,14.10
2023-05-13T20:30:50.774Z,14.04
2023-05-13T20:34:42.207Z,14.15
2023-05-13T20:38:33.330Z,14.04
2023-05-13T20:42:02.483Z,14.04
2023-05-13T20:45:52.686Z,13.96
2023-05-13T20:49:46.734Z,13.91
2023-05-13T20:53:29.444Z,13.83
2023-05-13T20:56:44.152Z,13.70
2023-05-13T21:00:29.146Z,13.63
2023-05-13T21:04:04.873Z,13.56
2023-05-13T21:07:14.514Z,13.38
2023-05-13T21:11:03.267Z,13.38
2023-05-13T21:14:33.821Z,13.33
2023-05-13T21:18:20.306Z,13.23
2023-05-13T21:21:43.601Z,13.14
2023-05-13T21:25:00.220Z,13.06
2023-05-13T21:28:30.382Z,12.94
2023-05-13T21:32:01.445Z,12.81
2023-05-13T21:35:26.243Z,12.61
2023-05-13T21:39:01.996Z,12.51
2023-05-13T21:42:30.895Z,12.46
2023-05-13T21:45:40.444Z,12.44
2023-05-13T21:48:25.658Z,12.47
2023-05-13T21:51:34.158Z,12.43
2023-05-13T21:54:45.010Z,12.33
2023-05-13T21:58:15.290Z,12.35
2023-05-13T22:01:24.360Z,12.33
2023-05-13T22:05:14.332Z,12.23
2023-05-13T22:08:11.169Z,12.03
2023-05-13T22:11:09.676Z,11.78
2023-05-13T22:14:25.839Z,11.84
2023-05-13T22:17:46.793Z,11.82
2023-05-13T22:21:14.821Z,11.94
2023-05-13T22:24:17.415Z,12.01
2023-05-13T22:27:06.994Z,11.86
2023-05-13T22:29:57.031Z,11.79
2023-05-13T22:32:50.565Z,11.85
2023-05-13T22:35:48.185Z,11.84
2023-05-13T22:38:37.894Z,11.79
2023-05-13T22:41:30.650Z,11.76
2023-05-13T22:44:22.813Z,11.74
2023-05-13T22:47:17.631Z,11.68
2023-05-13T22:50:23.332Z,11.59
2023-05-13T22:53:18.322Z,11.59
2023-05-13T22:56:33.048Z,11.64
2023-05-13T22:59:25.154Z,11.70
2023-05-13T23:02:28.439Z,11.68
2023-05-13T23:05:03.960Z,11.60
2023-05-13T23:07:35.942Z,11.63
2023-05-13T23:10:24.513Z,11.73
2023-05-13T23:13:36.075Z,11.66
2023-05-13T23:16:07.701Z,11.63
2023-05-13T23:19:26.357Z,11.65
2023-05-13T23:22:25.843Z,11.66
2023-05-13T23:24:57.633Z,11.71
2023-05-13T23:27:48.950Z,11.73
2023-05-13T23:30:42.579Z,11.74
2023-05-13T23:33:38.873Z,11.78
2023-05-13T23:36:29.905Z,11.87
2023-05-13T23:39:00.547Z,11.94
2023-05-13T23:41:51.373Z,12.05
2023-05-13T23:44:46.538Z,12.12
2023-05-13T23:47:52.185Z,12.12
2023-05-13T23:50:26.147Z,12.06
2023-05-13T23:53:16.924Z,11.99
2023-05-13T23:56:12.440Z,11.96
2023-05-13T23:58:49.126Z,11.95
